Hua-lien, Taiwan
Current Conditions -  °F | °C
As of 6:30 AM on Monday 24 Nov 2014 (Local Time) from RCMQ Reporting Station
Haze Haze  
Wind Chill: 63°   Ceiling: Unl
Heat Index: 63°   Visibility: 0.75mi
Dew Point: 61°   Wind: 6mph
Humidity: 94%   Direction: 170°S
Pressure: 30"   Gusts: NA
Location:  24.02°N, 121.62°E
Report Text: RCMQ 232230Z 17005KT 1200 R36/2000N BR FEW004 SCT010 17/16 Q1016 NOSIG RMK A3001
Loading
Personal Weather Stations






























Interactive Weather Map New forecast layout! Learn more

10-Day Weather Forecast

Advertisements
Track Severe Weather on mobile